createdAt,value
2023-01-13T05:03:36.619Z,22.13
2023-01-13T05:06:39.795Z,24.33
2023-01-13T05:09:42.689Z,22.27
2023-01-13T05:13:04.607Z,23.30
2023-01-13T05:16:48.918Z,23.15
2023-01-13T05:19:52.080Z,26.80
2023-01-13T05:23:13.496Z,22.75
2023-01-13T05:26:16.444Z,25.17
2023-01-13T05:29:19.061Z,23.08
2023-01-13T05:32:22.510Z,24.92
2023-01-13T05:35:25.396Z,22.25
2023-01-13T05:38:28.243Z,21.20
2023-01-13T05:41:49.861Z,21.45
2023-01-13T05:44:52.823Z,23.02
2023-01-13T05:47:56.893Z,23.20
2023-01-13T05:51:00.877Z,22.23
2023-01-13T05:54:03.699Z,22.40
2023-01-13T05:57:06.664Z,24.35
2023-01-13T06:00:09.814Z,24.37
2023-01-13T06:03:16.019Z,21.48
2023-01-13T06:06:18.937Z,22.55
2023-01-13T06:09:22.834Z,21.83
2023-01-13T06:12:26.655Z,21.30
2023-01-13T06:15:29.328Z,22.58
2023-01-13T06:18:32.392Z,24.35
2023-01-13T06:21:35.861Z,27.35
2023-01-13T06:24:39.518Z,25.42
2023-01-13T06:27:43.515Z,21.30
2023-01-13T06:30:53.918Z,26.83
2023-01-13T06:34:03.503Z,25.33
2023-01-13T06:40:12.702Z,22.92
2023-01-13T06:43:16.840Z,23.83
2023-01-13T06:46:19.720Z,25.00
2023-01-13T06:49:22.623Z,22.83
2023-01-13T06:52:27.381Z,25.65
2023-01-13T06:55:30.316Z,25.35
2023-01-13T06:58:32.928Z,23.48
2023-01-13T07:01:36.192Z,24.12
2023-01-13T07:04:38.859Z,24.67
2023-01-13T07:07:42.391Z,22.35
2023-01-13T07:10:45.009Z,23.30
2023-01-13T07:14:06.204Z,23.10
2023-01-13T07:17:08.759Z,22.95
2023-01-13T07:20:12.079Z,22.98
2023-01-13T07:23:14.760Z,22.98
2023-01-13T07:26:17.780Z,20.85
2023-01-13T07:29:20.452Z,24.02
2023-01-13T07:32:23.354Z,23.00
2023-01-13T07:35:26.103Z,21.67
2023-01-13T07:38:30.189Z,23.80
2023-01-13T07:41:51.407Z,25.08
2023-01-13T07:44:54.442Z,29.37
2023-01-13T07:47:57.109Z,31.27
2023-01-13T07:51:05.390Z,23.75
2023-01-13T07:54:08.058Z,24.75
2023-01-13T07:57:10.875Z,22.25
2023-01-13T08:00:14.323Z,20.27
2023-01-13T08:03:17.372Z,21.05
2023-01-13T08:06:20.009Z,21.65
2023-01-13T08:09:22.950Z,22.90
2023-01-13T08:12:52.795Z,20.85
2023-01-13T08:16:02.785Z,24.77
2023-01-13T08:19:05.502Z,22.30
2023-01-13T08:22:08.512Z,21.95
2023-01-13T08:25:11.436Z,21.30
2023-01-13T08:28:15.932Z,18.98
2023-01-13T08:31:20.182Z,15.63
2023-01-13T08:34:23.361Z,21.98
2023-01-13T08:37:26.290Z,15.95
2023-01-13T08:40:31.547Z,17.92
2023-01-13T08:43:34.180Z,19.27
2023-01-13T08:46:37.438Z,18.05
2023-01-13T08:49:40.222Z,17.50
2023-01-13T08:52:43.516Z,18.12
2023-01-13T08:55:46.752Z,17.92
2023-01-13T08:58:49.752Z,14.73
2023-01-13T09:01:52.677Z,17.00
2023-01-13T09:04:55.819Z,14.25
2023-01-13T09:07:58.500Z,16.60
2023-01-13T09:11:01.664Z,16.05
2023-01-13T09:14:04.551Z,14.73
2023-01-13T09:17:07.949Z,16.45
2023-01-13T09:20:11.629Z,16.50
2023-01-13T09:23:15.571Z,14.63
2023-01-13T09:26:21.376Z,14.52
2023-01-13T09:29:24.438Z,16.25
2023-01-13T09:32:27.081Z,22.02
2023-01-13T09:35:30.145Z,18.85
2023-01-13T09:38:32.724Z,17.60
2023-01-13T09:41:59.666Z,16.12
2023-01-13T09:45:09.236Z,18.55
2023-01-13T09:48:33.131Z,19.35
2023-01-13T09:51:50.143Z,19.77
2023-01-13T09:55:03.460Z,19.90
2023-01-13T09:58:27.837Z,19.85
2023-01-13T10:02:08.483Z,21.67
2023-01-13T10:05:20.890Z,21.37
2023-01-13T10:08:28.297Z,19.83
2023-01-13T10:11:59.654Z,20.08
2023-01-13T10:15:02.430Z,19.30
2023-01-13T10:18:22.438Z,19.98
2023-01-13T10:21:25.102Z,20.50
2023-01-13T10:24:46.873Z,23.20
2023-01-13T10:27:51.616Z,22.85
2023-01-13T10:30:55.013Z,23.55
2023-01-13T10:34:04.216Z,20.92
2023-01-13T10:37:07.557Z,23.48
2023-01-13T10:40:18.312Z,22.95
2023-01-13T10:43:21.957Z,24.15
2023-01-13T10:46:24.995Z,26.90
2023-01-13T10:49:36.304Z,24.73
2023-01-13T10:53:00.636Z,21.52
2023-01-13T10:56:05.156Z,23.33
2023-01-13T10:59:27.598Z,21.50
2023-01-13T11:02:35.948Z,22.02
2023-01-13T11:05:38.727Z,22.73
2023-01-13T11:08:47.730Z,24.55
2023-01-13T11:11:55.500Z,23.17
2023-01-13T11:15:02.199Z,25.15
2023-01-13T11:18:13.651Z,23.70
2023-01-13T11:21:29.963Z,24.08
2023-01-13T11:24:44.984Z,21.40
2023-01-13T11:27:56.186Z,23.48
2023-01-13T11:31:25.502Z,23.02
2023-01-13T11:34:35.622Z,25.45
2023-01-13T11:37:42.402Z,25.45
2023-01-13T11:40:50.007Z,22.17
2023-01-13T11:44:14.262Z,24.60
2023-01-13T11:47:23.559Z,26.30
2023-01-13T11:50:42.775Z,26.55
2023-01-13T11:54:24.418Z,24.67
2023-01-13T11:57:58.134Z,32.15
2023-01-13T12:01:17.455Z,28.20
2023-01-13T12:04:20.310Z,24.30
2023-01-13T12:07:41.359Z,27.83
2023-01-13T12:11:03.164Z,27.73
2023-01-13T12:14:24.659Z,27.10
2023-01-13T12:17:38.489Z,27.33
2023-01-13T12:21:12.482Z,25.12
2023-01-13T12:24:29.428Z,28.42
2023-01-13T12:27:43.172Z,29.02
2023-01-13T12:30:51.278Z,29.60
2023-01-13T12:34:02.636Z,26.70
2023-01-13T12:37:29.240Z,29.40
2023-01-13T12:40:54.386Z,28.02
2023-01-13T12:44:16.498Z,26.90
2023-01-13T12:47:36.955Z,28.77
2023-01-13T12:50:42.180Z,33.55
2023-01-13T12:53:45.544Z,29.42
2023-01-13T12:56:49.201Z,30.58
2023-01-13T13:00:04.296Z,30.25
2023-01-13T13:03:13.882Z,32.55
2023-01-13T13:06:23.000Z,30.88
2023-01-13T13:09:30.860Z,31.12
2023-01-13T13:13:01.513Z,33.33
2023-01-13T13:16:26.508Z,30.20
2023-01-13T13:19:31.940Z,27.45
2023-01-13T13:22:44.763Z,29.75
2023-01-13T13:26:21.162Z,28.73
2023-01-13T13:29:34.121Z,30.23
2023-01-13T13:33:13.745Z,28.42
2023-01-13T13:36:40.124Z,30.83
2023-01-13T13:40:11.771Z,26.80
2023-01-13T13:43:34.701Z,28.38
2023-01-13T13:46:48.578Z,26.55
2023-01-13T13:49:54.575Z,26.58
2023-01-13T13:53:08.371Z,25.23
2023-01-13T13:56:34.986Z,29.90
2023-01-13T13:59:39.899Z,26.52
2023-01-13T14:02:50.861Z,27.58
2023-01-13T14:06:03.137Z,27.58
2023-01-13T14:09:17.714Z,30.02
2023-01-13T14:12:23.718Z,27.10
2023-01-13T14:15:28.290Z,25.83
2023-01-13T14:18:35.440Z,25.35
2023-01-13T14:21:38.515Z,26.12
2023-01-13T14:24:51.092Z,26.42
2023-01-13T14:27:55.955Z,27.60
2023-01-13T14:31:00.299Z,26.10
2023-01-13T14:34:31.061Z,26.20
2023-01-13T14:37:36.672Z,24.15
2023-01-13T14:40:44.705Z,28.23
2023-01-13T14:43:50.015Z,29.08
2023-01-13T14:46:57.402Z,27.35
2023-01-13T14:50:19.801Z,25.67
2023-01-13T14:53:47.320Z,28.90
2023-01-13T14:56:53.847Z,26.75
2023-01-13T15:00:14.685Z,25.15
2023-01-13T15:03:21.362Z,26.60
2023-01-13T15:06:26.128Z,27.00
2023-01-13T15:09:39.021Z,26.98
2023-01-13T15:12:43.333Z,28.42
2023-01-13T15:15:51.355Z,28.60
2023-01-13T15:18:55.758Z,27.58
2023-01-13T15:21:58.692Z,29.92
2023-01-13T15:25:01.287Z,28.30
2023-01-13T15:28:06.065Z,31.52
2023-01-13T15:31:09.429Z,27.65
2023-01-13T15:34:12.447Z,25.58
2023-01-13T15:37:17.025Z,30.08
2023-01-13T15:40:33.115Z,29.50
2023-01-13T15:43:54.072Z,34.13
2023-01-13T15:47:00.371Z,35.45
2023-01-13T15:50:03.332Z,31.87
2023-01-13T15:53:14.284Z,32.47
2023-01-13T15:56:26.521Z,28.52
2023-01-13T15:59:29.964Z,29.92
2023-01-13T16:02:32.632Z,31.77
2023-01-13T16:05:35.481Z,34.45
2023-01-13T16:08:38.573Z,30.98
2023-01-13T16:11:41.429Z,33.28
2023-01-13T16:14:44.089Z,28.38
2023-01-13T16:17:47.269Z,30.20
2023-01-13T16:20:53.487Z,29.48
2023-01-13T16:23:56.506Z,29.25
2023-01-13T16:27:01.679Z,27.52
2023-01-13T16:30:05.201Z,31.02
2023-01-13T16:33:07.897Z,32.40
2023-01-13T16:36:14.836Z,31.77
2023-01-13T16:39:22.202Z,33.97
2023-01-13T16:42:25.162Z,30.08
2023-01-13T16:45:28.078Z,27.08
2023-01-13T16:48:30.980Z,27.23
2023-01-13T16:51:33.749Z,30.30
2023-01-13T16:54:37.131Z,32.55
2023-01-13T16:57:39.715Z,29.10
